Terminal Aerodrome Forecast
Issued by NWS Spokane, WA

Home | Current Version | Previous Version | Text Only | Print | Product List | Glossary On
Versions: 1 2 3 4 5 6 7 8 9 10 11 12 13 14 15 16 17 18 19 20 21 22 23 24 25 26 27
000
FTUS46 KOTX 060520
TAFEAT
TAF
KEAT 060520Z 0606/0706 30011KT P6SM SCT100
     FM062000 30012G20KT P6SM FEW150
     FM062200 30018G28KT P6SM FEW150
     FM070300 30012KT P6SM FEW200=

USA.gov is the U.S. government's official web portal to all federal, state and local government web resources and services.